Time;durP1;ratioP1;P1;durP2;ratioP2;P2;SDS_P1;SDS_P2;PMS_P1;PMS_P2;Temp;Humidity;BMP_temperature;BMP_pressure;BME280_temperature;BME280_humidity;BME280_pressure;Samples;Min_cycle;Max_cycle;Signal;HPM_P1;HPM_P2
2022/10/06 00:02:03;;;;;;;7.40;2.80;;;;;;;14.13;65.94;99465.23;106076;1274;24283;-86
2022/10/06 00:04:48;;;;;;;9.20;3.40;;;;;;;14.14;65.95;99465.33;105849;1274;25332;-83
2022/10/06 00:07:30;;;;;;;9.00;3.50;;;;;;;14.15;66.01;99464.35;105918;1275;22534;-83
2022/10/06 00:10:06;;;;;;;10.20;3.70;;;;;;;14.13;65.92;99465.59;106211;1274;22547;-81
2022/10/06 00:12:53;;;;;;;10.80;3.20;;;;;;;14.10;65.92;99464.41;105934;1275;24107;-82
2022/10/06 00:15:39;;;;;;;8.00;2.80;;;;;;;14.06;65.93;99469.02;105918;1275;25225;-81
2022/10/06 00:18:29;;;;;;;7.50;2.20;;;;;;;14.05;66.01;99473.21;105966;1274;22548;-85
2022/10/06 00:21:17;;;;;;;7.00;2.50;;;;;;;14.09;66.16;99473.10;106069;1272;22528;-82
2022/10/06 00:23:50;;;;;;;6.90;2.70;;;;;;;14.11;66.07;99471.72;106016;1274;22772;-86
2022/10/06 00:26:29;;;;;;;7.60;2.70;;;;;;;14.13;66.02;99479.56;106057;1274;24239;-86
2022/10/06 00:29:22;;;;;;;7.40;2.60;;;;;;;14.13;66.11;99485.15;106273;1274;24214;-81
2022/10/06 00:32:00;;;;;;;7.30;2.90;;;;;;;14.10;66.11;99485.05;106220;1275;22666;-82
2022/10/06 00:34:31;;;;;;;7.30;2.60;;;;;;;14.04;66.19;99480.83;105947;1275;22529;-85
2022/10/06 00:37:24;;;;;;;7.80;2.90;;;;;;;14.01;66.18;99480.35;106057;1274;22533;-83
2022/10/06 00:40:08;;;;;;;;;;;;;;;;;;;;;
2022/10/06 00:43:29;;;;;;;5.80;2.50;;;;;;;13.91;66.21;99477.08;106087;1274;22553;-82
2022/10/06 00:46:29;;;;;;;7.50;2.70;;;;;;;13.83;66.24;99476.13;106120;1274;24415;-82
2022/10/06 00:49:29;;;;;;;7.40;2.80;;;;;;;13.77;66.38;99476.19;106103;1275;22535;-86
2022/10/06 00:52:58;;;;;;;6.70;2.80;;;;;;;13.75;66.37;99475.83;106107;1274;25609;-85
2022/10/06 00:55:52;;;;;;;;;;;;;;;;;;;;;
2022/10/06 00:58:33;;;;;;;;;;;;;;;;;;;;;
2022/10/06 01:01:56;;;;;;;8.80;2.90;;;;;;;13.76;66.55;99486.80;106266;1274;23925;-82
2022/10/06 01:05:08;;;;;;;;;;;;;;;;;;;;;
2022/10/06 01:08:16;;;;;;;;;;;;;;;;;;;;;
2022/10/06 01:11:36;;;;;;;;;;;;;;;;;;;;;
2022/10/06 01:14:50;;;;;;;;;;;;;;;;;;;;;
2022/10/06 01:18:19;;;;;;;7.30;2.70;;;;;;;13.74;66.73;99506.84;106018;1275;23911;-83
2022/10/06 01:21:42;;;;;;;12.00;4.50;;;;;;;13.73;66.72;99509.72;106171;1274;24230;-82
2022/10/06 01:24:44;;;;;;;10.50;3.90;;;;;;;13.69;66.78;99510.83;105966;1278;25522;-86
2022/10/06 01:27:50;;;;;;;;;;;;;;;;;;;;;
2022/10/06 01:31:08;;;;;;;;;;;;;;;;;;;;;
2022/10/06 01:33:44;;;;;;;9.10;3.60;;;;;;;13.53;66.82;99512.77;105991;1277;24167;-87
2022/10/06 01:36:41;;;;;;;;;;;;;;;;;;;;;
2022/10/06 01:40:11;;;;;;;8.50;3.30;;;;;;;13.49;66.98;99509.13;106104;1275;24406;-81
2022/10/06 01:43:34;;;;;;;7.30;3.30;;;;;;;13.47;67.13;99507.46;106294;1274;22695;-83
2022/10/06 01:46:14;;;;;;;8.50;3.30;;;;;;;13.43;67.16;99508.70;105921;1274;23847;-81
2022/10/06 01:49:02;;;;;;;7.70;3.60;;;;;;;13.38;67.17;99507.27;105909;1277;22649;-86
2022/10/06 01:51:50;;;;;;;9.00;3.50;;;;;;;13.32;67.23;99511.36;105906;1275;22548;-83
2022/10/06 01:54:25;;;;;;;8.00;3.40;;;;;;;13.26;67.26;99517.11;106032;1274;25311;-85
2022/10/06 01:57:01;;;;;;;10.30;3.30;;;;;;;13.17;67.26;99523.70;105868;1275;25432;-83
2022/10/06 01:59:31;;;;;;;7.70;2.90;;;;;;;13.09;67.25;99523.39;105927;1274;24202;-85
2022/10/06 02:02:04;;;;;;;7.40;3.00;;;;;;;13.06;67.35;99524.58;105871;1275;22546;-86
2022/10/06 02:04:31;;;;;;;8.30;3.00;;;;;;;13.04;67.44;99529.14;106048;1274;23195;-83
2022/10/06 02:07:17;;;;;;;7.00;3.00;;;;;;;13.04;67.47;99528.96;105889;1277;25388;-85
2022/10/06 02:09:59;;;;;;;10.50;3.20;;;;;;;13.04;67.50;99533.77;106328;1273;24252;-86
2022/10/06 02:12:34;;;;;;;7.30;3.00;;;;;;;13.02;67.47;99534.69;106026;1274;22677;-86
2022/10/06 02:15:31;;;;;;;8.90;3.30;;;;;;;12.90;67.39;99542.50;106168;1274;22540;-81
2022/10/06 02:17:57;;;;;;;8.50;3.60;;;;;;;12.76;67.54;99544.80;106052;1275;22544;-81
2022/10/06 02:20:32;;;;;;;8.30;3.50;;;;;;;12.73;67.65;99545.42;106025;1274;22703;-85
2022/10/06 02:22:59;;;;;;;8.90;3.30;;;;;;;12.69;67.63;99546.03;105908;1275;22557;-86
2022/10/06 02:25:38;;;;;;;8.40;3.60;;;;;;;12.64;67.76;99551.23;105947;1274;22540;-84
2022/10/06 02:28:15;;;;;;;8.40;3.30;;;;;;;12.66;67.90;99549.09;106005;1275;25526;-81
2022/10/06 02:30:49;;;;;;;8.70;4.00;;;;;;;12.71;67.92;99553.91;106074;1274;22717;-81
2022/10/06 02:33:26;;;;;;;8.80;3.60;;;;;;;12.70;67.94;99559.14;106093;1274;22604;-81
2022/10/06 02:35:57;;;;;;;9.80;3.70;;;;;;;12.69;67.94;99559.45;106011;1274;22701;-82
2022/10/06 02:38:28;;;;;;;8.70;3.60;;;;;;;12.68;67.97;99559.66;105769;1274;25255;-81
2022/10/06 02:41:21;;;;;;;8.80;3.80;;;;;;;12.68;68.02;99562.72;106008;1274;22605;-82
2022/10/06 02:43:48;;;;;;;10.10;3.90;;;;;;;12.67;68.11;99559.06;106045;1275;24256;-85
2022/10/06 02:46:30;;;;;;;8.30;3.40;;;;;;;12.67;68.08;99560.45;106022;1274;24960;-86
2022/10/06 02:49:16;;;;;;;8.10;3.30;;;;;;;12.68;68.12;99560.04;105896;1275;24294;-83
2022/10/06 02:51:45;;;;;;;8.70;3.40;;;;;;;12.72;68.16;99561.35;106277;1273;25411;-81
2022/10/06 02:54:28;;;;;;;8.70;3.70;;;;;;;12.76;68.29;99567.35;106038;1274;24431;-80
2022/10/06 02:56:58;;;;;;;9.80;3.80;;;;;;;12.79;68.28;99571.05;105869;1275;24309;-85
2022/10/06 02:59:34;;;;;;;8.50;3.50;;;;;;;12.80;68.24;99572.80;105971;1275;25368;-80
2022/10/06 03:02:01;;;;;;;7.50;3.70;;;;;;;12.79;68.35;99573.19;106022;1274;24265;-86
2022/10/06 03:04:30;;;;;;;8.60;3.80;;;;;;;12.80;68.40;99576.86;105865;1274;24254;-86
2022/10/06 03:07:04;;;;;;;10.50;3.80;;;;;;;12.84;68.48;99583.16;106022;1273;22538;-81
2022/10/06 03:09:36;;;;;;;10.60;4.10;;;;;;;12.89;68.49;99582.83;106090;1274;24230;-85
2022/10/06 03:12:07;;;;;;;8.90;3.70;;;;;;;12.90;68.41;99583.75;106015;1274;22540;-82
2022/10/06 03:14:44;;;;;;;9.10;3.40;;;;;;;12.91;68.37;99586.55;106061;1274;22556;-80
2022/10/06 03:17:22;;;;;;;9.10;3.30;;;;;;;12.94;68.47;99587.64;106035;1274;25339;-88
2022/10/06 03:20:15;;;;;;;9.80;3.50;;;;;;;12.96;68.50;99592.30;106001;1275;22562;-88
2022/10/06 03:22:58;;;;;;;9.40;3.50;;;;;;;12.97;68.50;99590.61;106023;1275;25369;-81
2022/10/06 03:26:19;;;;;;;;;;;;;;;;;;;;;
2022/10/06 03:29:02;;;;;;;9.50;3.40;;;;;;;12.91;68.52;99594.30;106274;1273;22708;-82
2022/10/06 03:31:30;;;;;;;9.60;3.90;;;;;;;12.87;68.48;99597.06;106029;1273;25269;-81
2022/10/06 03:34:00;;;;;;;9.90;3.70;;;;;;;12.84;68.53;99601.95;105977;1274;25300;-80
2022/10/06 03:36:33;;;;;;;8.80;3.40;;;;;;;12.82;68.56;99600.49;105921;1274;25232;-86
2022/10/06 03:39:19;;;;;;;11.40;3.30;;;;;;;12.80;68.62;99604.38;106106;1274;22535;-85
2022/10/06 03:42:00;;;;;;;10.60;3.60;;;;;;;12.80;68.76;99607.05;106243;1273;22556;-82
2022/10/06 03:44:57;;;;;;;;;;;;;;;;;;;;;
2022/10/06 03:47:34;;;;;;;8.90;3.60;;;;;;;12.81;68.79;99616.27;106064;1274;22552;-84
2022/10/06 03:50:07;;;;;;;8.70;3.90;;;;;;;12.81;68.76;99618.29;106041;1274;22561;-86
2022/10/06 03:52:39;;;;;;;8.40;3.60;;;;;;;12.79;68.82;99620.87;105957;1274;22558;-86
2022/10/06 03:55:10;;;;;;;10.50;4.00;;;;;;;12.75;68.82;99625.29;106138;1274;24383;-83
2022/10/06 03:57:57;;;;;;;8.40;3.70;;;;;;;12.69;68.72;99624.96;105976;1274;22617;-82
2022/10/06 04:00:31;;;;;;;9.90;4.10;;;;;;;12.65;68.80;99630.12;105924;1273;22553;-81
2022/10/06 04:03:32;;;;;;;;;;;;;;;;;;;;;
2022/10/06 04:06:03;;;;;;;8.40;3.70;;;;;;;12.58;68.95;99634.73;105996;1274;22662;-86
2022/10/06 04:08:51;;;;;;;9.50;4.00;;;;;;;12.58;68.99;99633.30;106064;1275;22557;-86
2022/10/06 04:11:33;;;;;;;10.00;3.90;;;;;;;12.57;69.08;99637.65;106054;1274;24267;-86
2022/10/06 04:14:21;;;;;;;9.90;4.20;;;;;;;12.56;69.11;99641.10;105980;1274;22670;-81
2022/10/06 04:17:01;;;;;;;10.90;4.30;;;;;;;12.53;69.12;99639.15;106056;1274;25304;-81
2022/10/06 04:19:38;;;;;;;8.10;3.80;;;;;;;12.51;69.21;99640.25;106249;1273;23936;-84
2022/10/06 04:22:32;;;;;;;10.70;3.80;;;;;;;12.47;69.15;99644.42;106026;1274;23523;-83
2022/10/06 04:25:20;;;;;;;11.70;3.80;;;;;;;12.50;69.39;99646.00;106013;1274;22631;-84
2022/10/06 04:27:53;;;;;;;9.20;3.30;;;;;;;12.53;69.37;99644.73;106035;1274;22563;-86
2022/10/06 04:30:36;;;;;;;10.00;4.10;;;;;;;12.54;69.37;99647.85;105997;1274;24520;-81
2022/10/06 04:33:29;;;;;;;;;;;;;;;;;;;;;
2022/10/06 04:36:21;;;;;;;10.50;3.90;;;;;;;12.55;69.37;99651.70;106021;1276;24227;-81
2022/10/06 04:38:55;;;;;;;9.70;3.50;;;;;;;12.56;69.45;99653.26;105997;1274;22971;-83
2022/10/06 04:41:41;;;;;;;;;;;;;;;;;;;;;
2022/10/06 04:44:21;;;;;;;10.10;3.80;;;;;;;12.57;69.42;99661.45;105857;1276;24278;-86
2022/10/06 04:46:49;;;;;;;9.90;3.70;;;;;;;12.57;69.41;99663.00;106013;1274;25343;-80
2022/10/06 04:49:33;;;;;;;9.40;3.50;;;;;;;12.58;69.49;99671.36;106060;1273;22622;-88
2022/10/06 04:52:18;;;;;;;9.00;3.80;;;;;;;12.57;69.48;99675.52;105874;1276;22538;-86
2022/10/06 04:55:01;;;;;;;9.80;4.10;;;;;;;12.55;69.52;99677.10;105944;1273;24361;-85
2022/10/06 04:57:44;;;;;;;11.40;3.80;;;;;;;12.53;69.55;99679.92;105960;1274;25308;-81
2022/10/06 05:00:28;;;;;;;8.20;3.80;;;;;;;12.50;69.51;99683.16;106005;1274;24272;-86
2022/10/06 05:03:14;;;;;;;10.40;3.60;;;;;;;12.48;69.61;99683.69;105975;1274;22715;-86
2022/10/06 05:06:28;;;;;;;;;;;;;;;;;;;;;
2022/10/06 05:09:58;;;;;;;;;;;;;;;;;;;;;
2022/10/06 05:13:09;;;;;;;;;;;;;;;;;;;;;
2022/10/06 05:15:55;;;;;;;11.10;4.10;;;;;;;12.53;69.83;99697.97;105969;1276;22595;-82
2022/10/06 05:18:36;;;;;;;13.20;4.30;;;;;;;12.56;69.89;99694.91;106085;1274;22625;-81
2022/10/06 05:21:10;;;;;;;8.90;4.00;;;;;;;12.58;69.87;99699.73;106295;1274;25187;-80
2022/10/06 05:24:05;;;;;;;;;;;;;;;;;;;;;
2022/10/06 05:27:01;;;;;;;10.60;4.20;;;;;;;12.64;69.84;99694.66;105995;1273;24029;-80
2022/10/06 05:29:41;;;;;;;10.10;4.40;;;;;;;12.68;69.80;99683.50;106360;1274;25426;-80
2022/10/06 05:32:12;;;;;;;11.90;5.00;;;;;;;12.74;69.90;99680.92;106370;1274;22619;-79
2022/10/06 05:34:46;;;;;;;9.90;4.50;;;;;;;12.82;69.93;99686.97;106112;1274;22634;-82
2022/10/06 05:37:16;;;;;;;12.70;4.80;;;;;;;12.88;69.98;99691.92;106138;1274;23797;-82
2022/10/06 05:39:46;;;;;;;17.90;5.80;;;;;;;12.94;69.93;99698.23;106097;1273;22539;-87
2022/10/06 05:42:16;;;;;;;12.60;4.30;;;;;;;13.02;69.96;99702.50;106000;1273;22640;-81
2022/10/06 05:44:51;;;;;;;11.40;4.60;;;;;;;13.15;69.94;99703.02;106069;1275;22572;-81
2022/10/06 05:47:32;;;;;;;15.30;5.20;;;;;;;13.25;69.98;99707.98;106131;1274;26539;-81
2022/10/06 05:50:01;;;;;;;10.10;4.30;;;;;;;13.36;69.94;99713.08;106066;1273;22560;-81
2022/10/06 05:52:31;;;;;;;12.50;4.40;;;;;;;13.48;69.81;99715.40;105992;1275;25381;-81
2022/10/06 05:54:58;;;;;;;10.70;3.70;;;;;;;13.63;69.79;99728.30;105978;1274;22537;-83
2022/10/06 05:57:27;;;;;;;12.20;3.80;;;;;;;13.79;69.74;99739.30;106350;1274;22534;-79
2022/10/06 05:59:54;;;;;;;9.80;3.70;;;;;;;13.97;69.80;99745.84;106121;1274;25519;-82
2022/10/06 06:02:22;;;;;;;9.30;3.60;;;;;;;14.13;69.67;99752.81;106167;1274;22656;-88
2022/10/06 06:04:51;;;;;;;10.70;3.80;;;;;;;14.28;69.67;99752.75;106032;1274;22531;-85
2022/10/06 06:07:21;;;;;;;17.80;3.90;;;;;;;14.42;69.69;99756.33;106265;1274;25291;-82
2022/10/06 06:09:52;;;;;;;19.00;5.00;;;;;;;14.55;69.62;99764.47;106102;1274;24412;-84
2022/10/06 06:12:25;;;;;;;12.30;4.20;;;;;;;14.68;69.52;99764.73;106125;1274;25362;-81
2022/10/06 06:18:03;;;;;;;10.20;4.10;;;;;;;14.95;69.63;99769.96;105960;1274;22535;-81
2022/10/06 06:20:37;;;;;;;10.10;4.20;;;;;;;15.08;69.55;99775.05;106127;1276;26465;-81
2022/10/06 06:23:15;;;;;;;13.70;4.60;;;;;;;15.21;69.50;99778.30;105943;1274;24283;-82
2022/10/06 06:26:12;;;;;;;25.60;5.70;;;;;;;15.34;69.50;99782.98;106095;1274;22534;-83
2022/10/06 06:28:49;;;;;;;11.80;4.50;;;;;;;15.52;69.38;99789.45;106134;1274;22629;-82
2022/10/06 06:31:30;;;;;;;11.10;4.30;;;;;;;15.65;69.32;99790.41;106166;1274;24305;-82
2022/10/06 06:34:05;;;;;;;9.40;4.00;;;;;;;15.78;69.37;99795.58;106079;1274;22632;-82
2022/10/06 06:37:08;;;;;;;17.50;4.10;;;;;;;15.91;69.34;99788.39;106055;1274;22716;-84
2022/10/06 06:39:45;;;;;;;11.10;4.20;;;;;;;16.14;69.46;99788.89;106339;1274;22613;-83
2022/10/06 06:42:22;;;;;;;12.00;4.10;;;;;;;16.37;69.42;99795.00;106023;1274;22557;-85
2022/10/06 06:44:58;;;;;;;11.60;3.60;;;;;;;16.53;69.37;99795.99;106046;1274;25666;-81
2022/10/06 06:47:54;;;;;;;10.80;3.60;;;;;;;16.60;69.41;99798.30;106003;1274;24202;-83
2022/10/06 06:50:24;;;;;;;10.70;3.60;;;;;;;16.58;69.26;99802.20;106011;1274;22553;-85
2022/10/06 06:53:04;;;;;;;14.30;4.00;;;;;;;16.49;69.35;99802.19;106035;1274;22528;-85
2022/10/06 06:55:52;;;;;;;15.80;3.90;;;;;;;16.46;69.51;99807.31;106311;1274;24336;-87
2022/10/06 06:58:32;;;;;;;12.20;3.50;;;;;;;16.46;69.61;99813.05;106348;1274;22723;-82
2022/10/06 07:01:16;;;;;;;9.70;3.50;;;;;;;16.50;69.70;99820.19;105926;1274;23197;-80
2022/10/06 07:03:55;;;;;;;11.50;3.40;;;;;;;16.51;69.63;99818.29;106025;1274;22601;-83
2022/10/06 07:06:27;;;;;;;14.90;3.80;;;;;;;16.48;69.64;99824.98;106040;1274;24289;-84
2022/10/06 07:09:07;;;;;;;19.10;4.00;;;;;;;16.44;69.57;99831.60;106111;1274;25528;-80
2022/10/06 07:11:38;;;;;;;14.00;3.60;;;;;;;16.45;69.74;99835.61;106358;1274;25244;-81
2022/10/06 07:14:17;;;;;;;15.20;3.10;;;;;;;16.49;69.73;99835.33;106129;1274;22698;-84
2022/10/06 07:25:57;;;;;;;17.50;4.00;;;;;;;16.67;69.85;99848.35;106037;1274;22532;-82
2022/10/06 07:28:25;;;;;;;15.90;4.10;;;;;;;16.76;69.70;99856.63;105980;1274;26495;-82
2022/10/06 07:30:59;;;;;;;17.50;3.80;;;;;;;16.84;69.74;99857.02;106040;1274;25384;-81
2022/10/06 07:33:31;;;;;;;14.00;4.10;;;;;;;16.89;69.64;99857.80;106057;1274;22551;-84
2022/10/06 07:36:02;;;;;;;13.80;3.30;;;;;;;16.99;69.67;99864.70;106103;1274;24261;-85
2022/10/06 07:38:32;;;;;;;12.00;3.10;;;;;;;17.09;69.59;99862.61;105991;1274;22700;-82
2022/10/06 07:41:07;;;;;;;11.60;3.20;;;;;;;17.21;69.59;99866.42;105999;1274;25207;-86
2022/10/06 07:43:40;;;;;;;13.40;3.30;;;;;;;17.34;69.59;99868.52;105931;1274;23188;-87
2022/10/06 07:46:17;;;;;;;10.80;2.60;;;;;;;17.48;69.46;99873.23;105962;1274;25308;-81
2022/10/06 07:48:56;;;;;;;9.60;2.40;;;;;;;17.65;69.41;99873.55;106036;1274;22708;-81
2022/10/06 07:51:27;;;;;;;7.70;2.40;;;;;;;17.75;69.14;99878.21;106070;1274;22659;-81
2022/10/06 07:54:16;;;;;;;;;;;;;;;;;;;;;
2022/10/06 07:57:21;;;;;;;8.30;2.40;;;;;;;17.93;69.10;99888.73;105582;1280;22564;-84
2022/10/06 07:59:56;;;;;;;10.70;3.00;;;;;;;18.09;69.24;99891.02;105965;1274;23313;-80
2022/10/06 08:02:33;;;;;;;9.00;2.40;;;;;;;18.32;69.36;99895.59;106053;1274;22531;-87
2022/10/06 08:05:03;;;;;;;7.40;2.20;;;;;;;18.38;69.08;99899.25;106205;1273;24234;-84
2022/10/06 08:07:33;;;;;;;8.20;2.20;;;;;;;18.31;68.85;99902.56;105966;1273;26716;-83
2022/10/06 08:10:00;;;;;;;12.40;2.80;;;;;;;18.20;68.87;99905.95;105890;1276;22540;-81
2022/10/06 08:12:44;;;;;;;7.90;1.90;;;;;;;18.07;69.01;99911.20;105955;1274;25493;-81
2022/10/06 08:15:17;;;;;;;5.70;2.20;;;;;;;18.04;69.09;99916.17;106076;1274;22581;-85
2022/10/06 08:17:58;;;;;;;8.20;2.30;;;;;;;18.08;69.25;99919.06;106119;1274;22830;-82
2022/10/06 08:20:44;;;;;;;;;;;;;;;;;;;;;
2022/10/06 08:23:13;;;;;;;7.70;3.00;;;;;;;18.34;69.36;99928.38;106014;1274;25503;-82
2022/10/06 08:25:50;;;;;;;8.00;2.70;;;;;;;18.37;69.19;99933.77;105938;1274;25352;-82
2022/10/06 08:28:24;;;;;;;7.70;2.80;;;;;;;18.33;69.13;99927.11;105846;1274;22540;-84
2022/10/06 08:31:01;;;;;;;8.30;2.60;;;;;;;18.33;69.16;99930.70;105978;1273;22565;-83
2022/10/06 08:33:55;;;;;;;7.60;3.00;;;;;;;18.30;68.90;99937.20;105822;1274;23905;-81
2022/10/06 08:36:33;;;;;;;5.70;2.30;;;;;;;18.16;68.77;99945.02;106038;1273;22573;-86
2022/10/06 08:39:01;;;;;;;6.60;2.40;;;;;;;18.13;69.08;99945.14;105965;1274;25346;-81
2022/10/06 08:41:54;;;;;;;9.40;2.50;;;;;;;18.23;69.14;99946.17;105972;1274;25418;-83
2022/10/06 08:45:44;;;;;;;6.30;2.50;;;;;;;18.37;69.39;99955.21;105915;1274;25337;-81
2022/10/06 08:48:14;;;;;;;7.30;2.50;;;;;;;18.46;69.39;99956.03;105926;1273;22544;-82
2022/10/06 08:51:44;;;;;;;6.80;2.10;;;;;;;18.39;68.93;99962.95;106183;1273;25213;-81
2022/10/06 08:55:22;;;;;;;10.50;2.60;;;;;;;18.16;68.71;99963.08;105829;1273;25508;-82
2022/10/06 08:58:06;;;;;;;9.10;2.30;;;;;;;18.02;69.05;99973.61;105952;1273;22698;-82
2022/10/06 09:00:44;;;;;;;7.60;2.10;;;;;;;17.93;68.93;99976.59;105946;1273;22561;-78
2022/10/06 09:03:47;;;;;;;5.50;1.80;;;;;;;17.86;68.89;99981.52;105983;1273;22537;-82
2022/10/06 09:06:51;;;;;;;5.10;1.40;;;;;;;17.85;68.92;99987.04;105968;1274;21960;-82
2022/10/06 09:10:26;;;;;;;9.10;2.00;;;;;;;17.91;69.04;99989.20;106036;1273;22534;-82
2022/10/06 09:13:12;;;;;;;6.00;1.70;;;;;;;18.05;69.23;99994.48;105650;1276;22585;-85
2022/10/06 09:16:28;;;;;;;5.80;2.00;;;;;;;18.15;69.07;99997.41;105961;1274;25432;-83
2022/10/06 09:19:30;;;;;;;5.30;1.80;;;;;;;18.17;68.55;100003.69;106074;1273;23906;-80
2022/10/06 09:22:40;;;;;;;4.80;1.50;;;;;;;18.05;68.34;100008.36;105937;1274;24364;-84
2022/10/06 09:25:40;;;;;;;6.70;1.60;;;;;;;17.89;68.39;100012.09;106225;1274;22669;-82
2022/10/06 09:28:27;;;;;;;;;;;;;;;;;;;;;
2022/10/06 09:31:37;;;;;;;6.80;1.30;;;;;;;17.57;68.25;100028.16;106138;1273;24313;-87
2022/10/06 09:35:03;;;;;;;;;;;;;;;;;;;;;
2022/10/06 09:38:43;;;;;;;;;;;;;;;;;;;;;
2022/10/06 09:42:44;;;;;;;9.30;2.20;;;;;;;17.34;68.36;100057.90;105731;1281;25457;-83
2022/10/06 09:45:41;;;;;;;9.90;2.70;;;;;;;17.22;68.22;100065.36;105503;1281;25217;-81
2022/10/06 09:48:44;;;;;;;9.60;2.20;;;;;;;17.11;68.41;100074.35;105724;1280;26298;-82
2022/10/06 09:51:37;;;;;;;;;;;;;;;;;;;;;
2022/10/06 09:54:27;;;;;;;9.30;2.40;;;;;;;17.01;68.31;100083.80;105766;1279;22559;-84
2022/10/06 09:57:38;;;;;;;10.10;2.00;;;;;;;16.98;68.34;100089.09;105716;1281;22669;-84
2022/10/06 10:00:32;;;;;;;8.10;2.10;;;;;;;16.94;68.31;100095.21;105697;1281;22559;-83
2022/10/06 10:03:15;;;;;;;8.40;2.40;;;;;;;16.89;68.36;100097.61;105707;1281;22985;-86
2022/10/06 10:06:01;;;;;;;9.50;2.20;;;;;;;16.85;68.41;100104.73;105656;1279;24219;-83
2022/10/06 10:08:46;;;;;;;9.00;2.20;;;;;;;16.78;68.18;100110.36;105600;1279;22573;-83
2022/10/06 10:14:22;;;;;;;5.20;1.80;;;;;;;16.60;68.02;100123.98;105702;1273;22575;-84
2022/10/06 10:17:24;;;;;;;6.10;1.50;;;;;;;16.62;68.26;100122.96;105825;1274;24245;-84
2022/10/06 10:20:01;;;;;;;8.20;1.60;;;;;;;16.76;68.12;100127.45;105930;1273;24048;-81
2022/10/06 10:22:52;;;;;;;4.70;1.60;;;;;;;16.80;67.90;100130.22;105827;1273;23095;-82
2022/10/06 10:25:40;;;;;;;4.40;1.20;;;;;;;16.79;67.72;100132.05;105967;1274;25246;-81
2022/10/06 10:28:14;;;;;;;5.00;1.40;;;;;;;16.72;67.64;100138.52;105976;1273;22571;-81
2022/10/06 10:31:19;;;;;;;8.30;1.60;;;;;;;16.62;67.63;100140.94;106192;1273;23521;-83
2022/10/06 10:34:00;;;;;;;6.20;1.50;;;;;;;16.51;67.93;100147.41;106181;1273;24208;-82
2022/10/06 10:37:06;;;;;;;5.60;1.20;;;;;;;16.53;67.93;100154.39;105900;1274;24241;-86
2022/10/06 10:39:44;;;;;;;6.80;1.50;;;;;;;16.53;67.90;100151.90;105947;1274;25243;-81
2022/10/06 10:42:46;;;;;;;2.80;1.10;;;;;;;16.51;67.90;100161.06;105951;1274;22560;-85
2022/10/06 10:45:50;;;;;;;6.10;1.30;;;;;;;16.55;68.14;100160.23;105986;1274;24276;-84
2022/10/06 10:48:42;;;;;;;5.20;1.20;;;;;;;16.65;68.09;100165.10;105949;1273;25360;-84
2022/10/06 10:51:59;;;;;;;3.60;1.10;;;;;;;16.56;67.73;100173.59;105989;1273;22648;-83
2022/10/06 10:54:59;;;;;;;4.20;1.00;;;;;;;16.34;67.90;100178.39;106029;1273;25335;-81
2022/10/06 10:57:39;;;;;;;5.00;1.10;;;;;;;16.20;68.03;100184.69;105916;1274;25242;-79
2022/10/06 11:00:18;;;;;;;4.60;1.10;;;;;;;16.08;67.91;100192.63;105927;1276;25236;-86
2022/10/06 11:02:54;;;;;;;8.20;1.40;;;;;;;15.92;67.90;100201.01;105970;1276;22540;-83
2022/10/06 11:05:32;;;;;;;4.90;1.00;;;;;;;15.86;67.91;100207.62;105943;1274;22538;-87
2022/10/06 11:08:34;;;;;;;4.40;1.50;;;;;;;15.80;67.98;100208.39;105961;1275;24116;-83
2022/10/06 11:11:40;;;;;;;;;;;;;;;;;;;;;
2022/10/06 11:14:58;;;;;;;4.70;0.90;;;;;;;15.91;67.87;100217.30;106038;1275;25482;-82
2022/10/06 11:18:03;;;;;;;8.40;0.90;;;;;;;15.92;67.73;100216.50;106040;1275;24029;-83
2022/10/06 11:20:44;;;;;;;2.10;0.70;;;;;;;16.10;67.95;100207.41;106193;1273;25236;-81
2022/10/06 11:23:32;;;;;;;5.60;0.90;;;;;;;16.56;67.51;100201.86;106023;1273;25219;-82
2022/10/06 11:26:48;;;;;;;3.90;0.80;;;;;;;16.83;67.42;100194.52;106052;1273;22542;-87
2022/10/06 11:29:52;;;;;;;4.20;1.00;;;;;;;17.28;67.66;100190.81;106068;1274;26681;-82
2022/10/06 11:32:34;;;;;;;5.10;0.80;;;;;;;17.58;66.83;100191.95;106217;1273;24358;-85
2022/10/06 11:35:34;;;;;;;3.20;0.60;;;;;;;17.61;66.72;100193.71;106174;1273;24414;-83
2022/10/06 11:38:55;;;;;;;2.50;0.70;;;;;;;17.66;66.29;100197.57;106010;1276;24247;-87
2022/10/06 11:42:05;;;;;;;5.20;0.80;;;;;;;17.72;66.25;100204.46;106192;1273;25304;-82
2022/10/06 11:44:51;;;;;;;4.60;0.70;;;;;;;17.60;66.00;100199.88;106228;1273;25567;-88
2022/10/06 11:47:35;;;;;;;5.70;0.90;;;;;;;17.34;65.99;100200.44;105930;1274;23523;-82
2022/10/06 11:50:36;;;;;;;4.60;0.80;;;;;;;17.26;66.07;100203.74;106086;1274;23952;-82
2022/10/06 11:53:51;;;;;;;5.70;0.60;;;;;;;17.23;65.94;100198.24;106294;1273;22810;-86
2022/10/06 11:56:23;;;;;;;3.80;0.70;;;;;;;17.51;66.17;100197.19;105992;1274;24250;-84
2022/10/06 11:59:29;;;;;;;2.40;0.50;;;;;;;17.72;65.73;100197.30;105874;1274;22534;-86
2022/10/06 12:02:02;;;;;;;2.50;0.50;;;;;;;17.78;66.00;100195.84;105988;1273;22529;-86
2022/10/06 12:05:29;;;;;;;;;;;;;;;;;;;;;
2022/10/06 12:08:16;;;;;;;4.20;0.60;;;;;;;18.59;65.94;100200.94;106045;1273;25390;-84
2022/10/06 12:10:57;;;;;;;2.50;0.50;;;;;;;18.59;65.21;100206.61;106079;1274;22610;-83
2022/10/06 12:13:51;;;;;;;3.00;0.50;;;;;;;18.42;64.88;100210.64;106096;1273;25407;-83
2022/10/06 12:17:34;;;;;;;4.10;0.70;;;;;;;18.26;64.65;100212.89;105986;1274;22654;-84
2022/10/06 12:20:53;;;;;;;4.00;0.60;;;;;;;18.66;65.51;100210.48;105453;1282;22718;-86
2022/10/06 12:23:58;;;;;;;5.30;0.90;;;;;;;19.13;64.81;100214.44;105697;1281;23310;-85
2022/10/06 12:27:29;;;;;;;5.50;0.70;;;;;;;19.41;63.91;100213.56;105688;1281;25335;-81
2022/10/06 12:30:15;;;;;;;3.40;0.50;;;;;;;19.01;63.51;100212.60;105648;1281;23155;-83
2022/10/06 12:33:38;;;;;;;3.80;0.50;;;;;;;18.65;63.48;100222.12;105672;1281;25529;-83
2022/10/06 12:36:25;;;;;;;4.40;0.70;;;;;;;18.46;63.74;100217.70;105135;1287;22599;-84
2022/10/06 12:39:32;;;;;;;;;;;;;;;;;;;;;
2022/10/06 12:43:10;;;;;;;4.70;0.50;;;;;;;17.69;63.87;100219.36;104615;1287;22563;-84
2022/10/06 12:45:44;;;;;;;4.40;0.70;;;;;;;17.75;64.22;100222.65;104968;1287;25526;-83
2022/10/06 12:49:30;;;;;;;5.40;0.50;;;;;;;17.87;64.10;100226.63;104841;1287;25297;-84
2022/10/06 12:52:48;;;;;;;;;;;;;;;;;;;;;
2022/10/06 12:56:25;;;;;;;4.00;0.60;;;;;;;17.88;63.72;100233.27;105386;1282;24135;-86
2022/10/06 13:03:14;;;;;;;2.70;0.50;;;;;;;17.83;63.62;100232.39;105653;1279;23986;-87
2022/10/06 13:07:28;;;;;;;3.10;0.50;;;;;;;17.84;63.60;100235.73;105774;1279;22593;-84
2022/10/06 13:10:29;;;;;;;;;;;;;;;;;;;;;
2022/10/06 13:13:36;;;;;;;4.80;1.10;;;;;;;17.70;63.13;100237.21;104967;1287;25556;-83
2022/10/06 13:16:35;;;;;;;6.70;2.20;;;;;;;17.65;63.22;100233.51;105073;1287;22579;-86
2022/10/06 13:19:33;;;;;;;5.20;1.70;;;;;;;17.54;62.68;100243.05;105174;1287;22702;-87
2022/10/06 13:22:30;;;;;;;4.70;1.50;;;;;;;17.47;62.66;100240.96;104816;1288;22649;-86
2022/10/06 13:25:27;;;;;;;5.50;1.40;;;;;;;17.37;62.98;100239.60;105288;1285;22498;-86
2022/10/06 13:28:52;;;;;;;17.20;7.10;;;;;;;17.38;63.27;100244.71;105414;1285;25612;-87
2022/10/06 13:31:57;;;;;;;6.50;1.60;;;;;;;17.42;62.93;100243.31;104827;1288;22556;-89
2022/10/06 13:35:03;;;;;;;;;;;;;;;;;;;;;
2022/10/06 13:38:45;;;;;;;6.30;0.90;;;;;;;17.33;62.88;100244.59;104729;1289;25465;-84
2022/10/06 13:41:32;;;;;;;5.40;1.40;;;;;;;17.22;62.59;100247.67;104560;1291;24247;-82
2022/10/06 13:45:04;;;;;;;6.30;1.10;;;;;;;17.09;62.82;100255.20;105006;1285;24258;-87
2022/10/06 13:47:45;;;;;;;5.70;0.80;;;;;;;17.02;62.91;100258.23;106106;1280;25619;-80
2022/10/06 13:50:17;;;;;;;7.40;1.50;;;;;;;16.98;62.89;100259.08;105841;1280;22568;-85
2022/10/06 13:53:04;;;;;;;9.40;1.30;;;;;;;16.97;62.99;100259.54;105844;1280;25293;-86
2022/10/06 13:55:36;;;;;;;7.10;1.40;;;;;;;16.94;62.46;100258.88;105883;1280;22557;-83
2022/10/06 13:58:03;;;;;;;6.30;0.90;;;;;;;16.87;62.36;100261.42;105883;1280;25316;-83
2022/10/06 14:00:54;;;;;;;5.60;0.90;;;;;;;16.80;62.53;100260.00;105689;1280;23367;-88
2022/10/06 14:03:35;;;;;;;5.80;0.90;;;;;;;16.75;62.45;100262.55;105579;1280;24286;-85
2022/10/06 14:06:19;;;;;;;4.60;0.90;;;;;;;16.69;61.87;100264.63;105618;1280;25653;-87
2022/10/06 14:08:53;;;;;;;3.60;1.00;;;;;;;16.60;62.09;100260.09;105910;1274;25365;-86